This is the latest recevied weather packets stored in our database for station/object K0NV. If no packets are shown the sender has not sent any weather packets the latest 1 day(s).
| Time | Temp. | Humidity | Pressure | Rain* | Wind** | Luminosity | Snow |
|---|---|---|---|---|---|---|---|
| 1778021545 | 7.78° C | 98% | 1009.8 hPa | 0 mm | 0 m/s | 41 W/m² | - |
| 1778021240 | 7.78° C | 97% | 1010 hPa | 0 mm | 0 m/s | 22 W/m² | - |
| 1778020938 | 7.78° C | 96% | 1010.3 hPa | 0 mm | 1.34 m/s, 51° | 49 W/m² | - |
| 1778020636 | 7.78° C | 96% | 1010.3 hPa | 0 mm | 0 m/s | 32 W/m² | - |
| 1778020332 | 7.78° C | 95% | 1010.5 hPa | 1.27 mm | 0 m/s | 23 W/m² | - |
| 1778020028 | 7.78° C | 95% | 1010.5 hPa | 1.27 mm | 1.34 m/s, 19° | 29 W/m² | - |
| 1778019723 | 7.78° C | 95% | 1010.5 hPa | 0 mm | 0 m/s | 29 W/m² | - |
| 1778019422 | 8.33° C | 95% | 1010.4 hPa | 0 mm | 0 m/s | 26 W/m² | - |
| 1778019118 | 8.33° C | 96% | 1010.4 hPa | 0 mm | 0.45 m/s, 133° | 15 W/m² | - |
| 1778018815 | 8.89° C | 96% | 1010.2 hPa | 0 mm | 0 m/s | 35 W/m² | - |
| 1778018513 | 8.89° C | 95% | 1010.1 hPa | 0 mm | 0.89 m/s, 10° | 38 W/m² | - |
| 1778018210 | 8.89° C | 95% | 1009.9 hPa | 0 mm | 2.68 m/s, 352° | 61 W/m² | - |
| 1778017908 | 8.89° C | 94% | 1010.1 hPa | 0 mm | 0 m/s | 84 W/m² | - |
| 1778017606 | 8.89° C | 93% | 1010.1 hPa | 0 mm | 1.34 m/s, 45° | 32 W/m² | - |
| 1778017303 | 8.89° C | 93% | 1010.2 hPa | 0 mm | 0.89 m/s, 57° | 44 W/m² | - |
| 1778017000 | 8.89° C | 92% | 1010.1 hPa | 0 mm | 0 m/s | 68 W/m² | - |
| 1778016697 | 8.89° C | 92% | 1010 hPa | 0 mm | 3.58 m/s, 22° | 54 W/m² | - |
| 1778016392 | 8.89° C | 92% | 1010.3 hPa | 0 mm | 2.24 m/s, 40° | 62 W/m² | - |
| 1778016091 | 8.89° C | 92% | 1010.4 hPa | 0 mm | 3.13 m/s, 14° | 28 W/m² | - |
| 1778015787 | 8.89° C | 92% | 1010.6 hPa | 0 mm | 0 m/s | 29 W/m² | - |
| 1778015484 | 8.89° C | 92% | 1010 hPa | 0 mm | 0.89 m/s, 65° | 42 W/m² | - |
| 1778015181 | 8.89° C | 92% | 1010.2 hPa | 0 mm | 1.34 m/s, 52° | 62 W/m² | - |
| 1778014878 | 8.89° C | 91% | 1010.1 hPa | 0 mm | 0 m/s | 51 W/m² | - |
| 1778014575 | 9.44° C | 91% | 1010.1 hPa | 0 mm | 0 m/s | 44 W/m² | - |
| 1778014273 | 9.44° C | 91% | 1010 hPa | 0 mm | 0.45 m/s, 132° | 90 W/m² | - |
* Rain latest hour (hover to see other rain measurements)
** Current wind speed in m/s (hover to see current wind gust speed)